Time;durP1;ratioP1;P1;durP2;ratioP2;P2;SDS_P1;SDS_P2;PMS_P1;PMS_P2;Temp;Humidity;BMP_temperature;BMP_pressure;BME280_temperature;BME280_humidity;BME280_pressure;Samples;Min_cycle;Max_cycle;Signal;HPM_P1;HPM_P2
2022/03/09 00:00:26;;;;;;;;;;;-3.50;99.90;;;;;;4174382;28;19925;-50
2022/03/09 00:02:28;;;;;;;;;;;-3.50;99.90;;;;;;4171394;28;19929;-51
2022/03/09 00:04:31;;;;;;;;;;;-3.60;99.90;;;;;;4175881;28;20035;-49
2022/03/09 00:06:33;;;;;;;;;;;-3.50;99.90;;;;;;4173870;28;19929;-49
2022/03/09 00:08:35;;;;;;;;;;;-3.50;99.90;;;;;;4163677;28;19925;-48
2022/03/09 00:10:37;;;;;;;;;;;-3.50;99.90;;;;;;4166517;28;19925;-50
2022/03/09 00:12:39;;;;;;;;;;;-3.60;99.90;;;;;;4172697;28;20007;-51
2022/03/09 00:14:41;;;;;;;;;;;-3.70;99.90;;;;;;4174175;28;19933;-50
2022/03/09 00:19:58;;;;;;;;;;;-3.70;99.90;;;;;;4179811;28;20140;-51
2022/03/09 00:22:02;;;;;;;;;;;-3.90;99.90;;;;;;4165522;28;19940;-51
2022/03/09 00:24:05;;;;;;;;;;;-4.10;99.90;;;;;;4166903;28;19929;-50
2022/03/09 00:26:06;;;;;;;;;;;-4.10;99.90;;;;;;4190694;28;19957;-50
2022/03/09 00:28:09;;;;;;;;;;;-3.90;99.90;;;;;;4174795;28;19963;-48
2022/03/09 00:30:11;;;;;;;;;;;-4.00;99.90;;;;;;4171421;28;20385;-49
2022/03/09 00:32:13;;;;;;;;;;;-4.10;99.90;;;;;;4166258;28;19956;-52
2022/03/09 00:34:15;;;;;;;;;;;-4.10;99.90;;;;;;4167848;28;20408;-51
2022/03/09 00:36:17;;;;;;;;;;;-4.10;99.90;;;;;;4161099;28;20382;-51
2022/03/09 00:38:19;;;;;;;;;;;-4.10;99.90;;;;;;4172042;28;19925;-51
2022/03/09 00:40:22;;;;;;;;;;;-4.10;99.90;;;;;;4173467;28;20062;-51
2022/03/09 00:42:24;;;;;;;;;;;-4.20;99.90;;;;;;4175318;28;19929;-50
2022/03/09 00:44:26;;;;;;;;;;;-4.20;99.90;;;;;;4170543;28;19982;-51
2022/03/09 00:46:28;;;;;;;;;;;-4.20;99.90;;;;;;4183944;28;20027;-51
2022/03/09 00:48:30;;;;;;;;;;;-4.30;99.90;;;;;;4166621;28;19925;-50
2022/03/09 00:50:32;;;;;;;;;;;-4.30;99.90;;;;;;4170562;28;20340;-50
2022/03/09 00:52:34;;;;;;;;;;;-4.40;99.90;;;;;;4172649;28;19950;-48
2022/03/09 00:54:36;;;;;;;;;;;-4.40;99.90;;;;;;4164475;28;19934;-48
2022/03/09 00:56:37;;;;;;;;;;;-4.40;99.90;;;;;;4169113;28;20117;-49
2022/03/09 00:58:40;;;;;;;;;;;-4.40;99.90;;;;;;4175764;28;19994;-51
2022/03/09 01:00:42;;;;;;;;;;;-4.30;99.90;;;;;;4176514;28;19928;-50
2022/03/09 01:02:45;;;;;;;;;;;-4.40;99.90;;;;;;4172404;28;19955;-49
2022/03/09 01:04:48;;;;;;;;;;;-4.30;99.90;;;;;;4175007;28;19936;-48
2022/03/09 01:06:49;;;;;;;;;;;-4.30;99.90;;;;;;4174514;28;19925;-48
2022/03/09 01:08:51;;;;;;;;;;;-4.30;99.90;;;;;;4176801;28;19929;-50
2022/03/09 01:10:53;;;;;;;;;;;-4.40;99.90;;;;;;4163314;28;19925;-51
2022/03/09 01:12:55;;;;;;;;;;;-4.40;99.90;;;;;;4171611;28;20406;-49
2022/03/09 01:14:57;;;;;;;;;;;-4.40;99.90;;;;;;4173912;28;19925;-49
2022/03/09 01:16:59;;;;;;;;;;;-4.50;99.90;;;;;;4176597;28;19924;-47
2022/03/09 01:19:01;;;;;;;;;;;-4.60;99.90;;;;;;4173432;28;19937;-50
2022/03/09 01:21:03;;;;;;;;;;;-4.70;99.90;;;;;;4171512;28;19991;-51
2022/03/09 01:23:05;;;;;;;;;;;-4.60;99.90;;;;;;4163655;28;19933;-47
2022/03/09 01:25:07;;;;;;;;;;;-4.40;99.90;;;;;;4167333;28;19925;-50
2022/03/09 01:27:09;;;;;;;;;;;-4.40;99.90;;;;;;4173300;28;19979;-49
2022/03/09 01:29:11;;;;;;;;;;;-4.30;99.90;;;;;;4171660;28;19935;-51
2022/03/09 01:31:13;;;;;;;;;;;-4.30;99.90;;;;;;4176213;28;19958;-51
2022/03/09 01:33:15;;;;;;;;;;;-4.30;99.90;;;;;;4178577;28;19925;-49
2022/03/09 01:35:17;;;;;;;;;;;-4.30;99.90;;;;;;4177746;28;19924;-51
2022/03/09 01:37:19;;;;;;;;;;;-4.40;99.90;;;;;;4172847;28;19932;-48
2022/03/09 01:39:21;;;;;;;;;;;-4.40;99.90;;;;;;4172653;28;19925;-48
2022/03/09 01:41:25;;;;;;;;;;;-4.40;99.90;;;;;;4162958;28;19991;-48
2022/03/09 01:43:26;;;;;;;;;;;-4.40;99.90;;;;;;4177352;28;19982;-51
2022/03/09 01:45:28;;;;;;;;;;;-4.50;99.90;;;;;;4176194;28;20461;-50
2022/03/09 01:47:30;;;;;;;;;;;-4.60;99.90;;;;;;4172614;28;20308;-50
2022/03/09 01:49:32;;;;;;;;;;;-4.60;99.90;;;;;;4162824;28;20389;-49
2022/03/09 01:51:35;;;;;;;;;;;-4.50;99.90;;;;;;4175847;28;19943;-50
2022/03/09 01:53:37;;;;;;;;;;;-4.40;99.90;;;;;;4177303;28;20217;-49
2022/03/09 01:55:39;;;;;;;;;;;-4.40;99.90;;;;;;4177352;28;20389;-52
2022/03/09 01:57:41;;;;;;;;;;;-4.30;99.90;;;;;;4176802;28;20037;-50
2022/03/09 01:59:43;;;;;;;;;;;-4.40;99.90;;;;;;4172360;28;20409;-51
2022/03/09 02:01:45;;;;;;;;;;;-4.50;99.90;;;;;;4171000;28;19925;-46
2022/03/09 02:03:48;;;;;;;;;;;-4.50;99.90;;;;;;4171910;28;19932;-46
2022/03/09 02:05:50;;;;;;;;;;;-4.60;99.90;;;;;;4176358;28;19925;-45
2022/03/09 02:10:12;;;;;;;;;;;-4.70;99.90;;;;;;4176058;28;20006;-48
2022/03/09 02:12:18;;;;;;;;;;;-4.70;99.90;;;;;;4176826;28;20365;-48
2022/03/09 02:14:28;;;;;;;;;;;-4.80;99.90;;;;;;4177589;28;19926;-48
2022/03/09 02:16:30;;;;;;;;;;;-4.90;99.90;;;;;;4173390;28;19925;-47
2022/03/09 02:18:31;;;;;;;;;;;-4.90;99.90;;;;;;4175063;28;19932;-46
2022/03/09 02:20:40;;;;;;;;;;;-5.00;99.90;;;;;;4177010;28;19929;-45
2022/03/09 02:22:42;;;;;;;;;;;-5.10;99.90;;;;;;4172139;28;19964;-45
2022/03/09 02:24:45;;;;;;;;;;;-5.30;99.90;;;;;;4176074;28;19975;-45
2022/03/09 02:26:48;;;;;;;;;;;-5.10;99.90;;;;;;4177685;28;19925;-48
2022/03/09 02:28:49;;;;;;;;;;;-4.90;99.90;;;;;;4175862;28;20016;-47
2022/03/09 02:30:55;;;;;;;;;;;-4.90;99.90;;;;;;4176799;28;19940;-47
2022/03/09 02:32:57;;;;;;;;;;;-4.80;99.90;;;;;;4163115;28;19940;-46
2022/03/09 02:34:59;;;;;;;;;;;-4.70;99.90;;;;;;4169112;28;19972;-47
2022/03/09 02:37:01;;;;;;;;;;;-4.70;99.90;;;;;;4172323;28;19928;-46
2022/03/09 02:39:03;;;;;;;;;;;-4.60;99.90;;;;;;4170529;28;19929;-46
2022/03/09 02:41:05;;;;;;;;;;;-4.60;99.90;;;;;;4175571;28;20470;-45
2022/03/09 02:43:07;;;;;;;;;;;-4.60;99.90;;;;;;4161936;28;19929;-48
2022/03/09 02:45:10;;;;;;;;;;;-4.60;99.90;;;;;;4175858;28;19928;-48
2022/03/09 02:47:12;;;;;;;;;;;-4.60;99.90;;;;;;4174109;28;19933;-47
2022/03/09 02:49:13;;;;;;;;;;;-4.50;99.90;;;;;;4176739;28;19935;-47
2022/03/09 02:51:15;;;;;;;;;;;-4.60;99.90;;;;;;4167693;28;19925;-48
2022/03/09 02:53:17;;;;;;;;;;;-4.70;99.90;;;;;;4174235;28;20197;-47
2022/03/09 02:55:19;;;;;;;;;;;-4.70;99.90;;;;;;4167680;28;19928;-46
2022/03/09 02:57:21;;;;;;;;;;;-4.70;99.90;;;;;;4176317;28;20304;-45
2022/03/09 02:59:23;;;;;;;;;;;-4.50;99.90;;;;;;4177077;28;19925;-46
2022/03/09 03:01:25;;;;;;;;;;;-4.50;99.90;;;;;;4175010;28;20089;-46
2022/03/09 03:03:27;;;;;;;;;;;-4.50;99.90;;;;;;4175561;28;19929;-48
2022/03/09 03:05:29;;;;;;;;;;;-4.60;99.90;;;;;;4176855;28;19990;-46
2022/03/09 03:07:31;;;;;;;;;;;-4.60;99.90;;;;;;4170614;28;19932;-47
2022/03/09 03:09:33;;;;;;;;;;;-4.70;99.90;;;;;;4173937;28;19982;-45
2022/03/09 03:11:35;;;;;;;;;;;-4.80;99.90;;;;;;4168725;28;19925;-47
2022/03/09 03:13:37;;;;;;;;;;;-4.80;99.90;;;;;;4176049;28;19929;-48
2022/03/09 03:15:39;;;;;;;;;;;-4.80;99.90;;;;;;4162149;28;19925;-45
2022/03/09 03:17:41;;;;;;;;;;;-4.90;99.90;;;;;;4174869;28;19995;-47
2022/03/09 03:19:43;;;;;;;;;;;-4.90;99.90;;;;;;4175688;28;20367;-46
2022/03/09 03:21:45;;;;;;;;;;;-4.80;99.90;;;;;;4175872;28;19925;-46
2022/03/09 03:23:47;;;;;;;;;;;-4.80;99.90;;;;;;4163277;28;20051;-49
2022/03/09 03:25:49;;;;;;;;;;;-4.80;99.90;;;;;;4174630;28;19960;-47
2022/03/09 03:27:51;;;;;;;;;;;-4.80;99.90;;;;;;4174755;28;19928;-46
2022/03/09 03:29:53;;;;;;;;;;;-4.80;99.90;;;;;;4176320;28;19929;-47
2022/03/09 03:31:55;;;;;;;;;;;-4.80;99.90;;;;;;4177100;28;20288;-49
2022/03/09 03:33:57;;;;;;;;;;;-4.80;99.90;;;;;;4174681;28;19975;-47
2022/03/09 03:35:59;;;;;;;;;;;-4.90;99.90;;;;;;4174407;28;19931;-48
2022/03/09 03:38:02;;;;;;;;;;;-4.90;99.90;;;;;;4176111;28;19939;-45
2022/03/09 03:40:04;;;;;;;;;;;-4.80;99.90;;;;;;4177514;28;20403;-46
2022/03/09 03:42:06;;;;;;;;;;;-4.80;99.90;;;;;;4167639;28;20417;-48
2022/03/09 03:44:08;;;;;;;;;;;-4.80;99.90;;;;;;4169774;28;19978;-47
2022/03/09 03:46:10;;;;;;;;;;;-4.90;99.90;;;;;;4165203;28;19933;-45
2022/03/09 03:48:12;;;;;;;;;;;-4.90;99.90;;;;;;4159642;28;19964;-48
2022/03/09 03:50:14;;;;;;;;;;;-4.90;99.90;;;;;;4175918;28;19933;-48
2022/03/09 03:52:16;;;;;;;;;;;-4.80;99.90;;;;;;4166786;28;19929;-47
2022/03/09 03:54:18;;;;;;;;;;;-4.90;99.90;;;;;;4164715;28;19925;-47
2022/03/09 03:56:20;;;;;;;;;;;-5.00;99.90;;;;;;4161026;28;19932;-47
2022/03/09 03:58:22;;;;;;;;;;;-5.00;99.90;;;;;;4163922;28;20182;-46
2022/03/09 04:00:25;;;;;;;;;;;-4.90;99.90;;;;;;4169986;28;19935;-48
2022/03/09 04:02:27;;;;;;;;;;;-4.80;99.90;;;;;;4164612;28;20432;-48
2022/03/09 04:04:29;;;;;;;;;;;-4.80;99.90;;;;;;4170019;28;20020;-48
2022/03/09 04:06:34;;;;;;;;;;;-4.80;99.90;;;;;;4176080;28;20372;-48
2022/03/09 04:08:36;;;;;;;;;;;-4.90;99.90;;;;;;4175190;28;19925;-48
2022/03/09 04:10:37;;;;;;;;;;;-4.90;99.90;;;;;;4174805;28;19982;-46
2022/03/09 04:12:39;;;;;;;;;;;-4.90;99.90;;;;;;4176741;28;20384;-46
2022/03/09 04:14:41;;;;;;;;;;;-4.90;99.90;;;;;;4162208;28;20298;-47
2022/03/09 04:16:45;;;;;;;;;;;-4.90;99.90;;;;;;4170378;28;19947;-45
2022/03/09 04:18:47;;;;;;;;;;;-4.90;99.90;;;;;;4174189;28;20400;-48
2022/03/09 04:20:48;;;;;;;;;;;-5.00;99.90;;;;;;4166427;28;20437;-45
2022/03/09 04:22:50;;;;;;;;;;;-4.90;99.90;;;;;;4174023;28;19928;-49
2022/03/09 04:24:52;;;;;;;;;;;-5.00;99.90;;;;;;4172304;28;20435;-48
2022/03/09 04:26:54;;;;;;;;;;;-5.10;99.90;;;;;;4173739;28;19935;-48
2022/03/09 04:28:56;;;;;;;;;;;-5.00;99.90;;;;;;4176301;28;20407;-47
2022/03/09 04:30:58;;;;;;;;;;;-5.00;99.90;;;;;;4176481;28;19943;-49
2022/03/09 04:33:00;;;;;;;;;;;-5.00;99.90;;;;;;4167126;28;19932;-46
2022/03/09 04:35:02;;;;;;;;;;;-5.00;99.90;;;;;;4164603;28;19933;-46
2022/03/09 04:37:06;;;;;;;;;;;-5.00;99.90;;;;;;4173071;28;19929;-46
2022/03/09 04:39:08;;;;;;;;;;;-4.90;99.90;;;;;;4171892;28;20044;-44
2022/03/09 04:41:10;;;;;;;;;;;-5.00;99.90;;;;;;4173789;28;20167;-44
2022/03/09 04:43:12;;;;;;;;;;;-4.90;99.90;;;;;;4170744;28;20396;-44
2022/03/09 04:45:14;;;;;;;;;;;-4.90;99.90;;;;;;4174898;28;19935;-46
2022/03/09 04:47:16;;;;;;;;;;;-4.90;99.90;;;;;;4160640;28;19936;-44
2022/03/09 04:49:18;;;;;;;;;;;-5.00;99.90;;;;;;4178191;28;19933;-46
2022/03/09 04:51:21;;;;;;;;;;;-5.00;99.90;;;;;;4172518;28;20405;-46
2022/03/09 04:53:23;;;;;;;;;;;-5.10;99.90;;;;;;4163496;28;19924;-47
2022/03/09 04:55:24;;;;;;;;;;;-5.10;99.90;;;;;;4174392;28;19928;-44
2022/03/09 04:57:26;;;;;;;;;;;-5.10;99.90;;;;;;4188807;28;20327;-46
2022/03/09 04:59:28;;;;;;;;;;;-5.10;99.90;;;;;;4164512;28;19932;-47
2022/03/09 05:01:30;;;;;;;;;;;-5.00;99.90;;;;;;4162963;28;19928;-46
2022/03/09 05:03:34;;;;;;;;;;;-4.80;99.90;;;;;;4179958;28;20299;-45
2022/03/09 05:05:39;;;;;;;;;;;-4.80;99.90;;;;;;4176975;28;20369;-44
2022/03/09 05:07:41;;;;;;;;;;;-4.70;99.90;;;;;;4178815;28;19925;-47
2022/03/09 05:09:43;;;;;;;;;;;-4.70;99.90;;;;;;4178047;28;20301;-48
2022/03/09 05:11:45;;;;;;;;;;;-4.60;99.90;;;;;;4174444;28;20229;-48
2022/03/09 05:13:46;;;;;;;;;;;-4.60;99.90;;;;;;4175430;28;20024;-47
2022/03/09 05:15:48;;;;;;;;;;;-4.50;99.90;;;;;;4172112;28;20372;-46
2022/03/09 05:17:50;;;;;;;;;;;-4.60;99.90;;;;;;4173811;28;20428;-48
2022/03/09 05:19:52;;;;;;;;;;;-4.70;99.90;;;;;;4180262;28;19932;-46
2022/03/09 05:21:54;;;;;;;;;;;-4.70;99.90;;;;;;4177740;28;20364;-49
2022/03/09 05:24:12;;;;;;;;;;;-4.80;99.90;;;;;;4168491;28;19933;-49
2022/03/09 05:26:14;;;;;;;;;;;-4.80;99.90;;;;;;4168582;28;19979;-45
2022/03/09 05:28:16;;;;;;;;;;;-4.90;99.90;;;;;;4165791;28;19937;-46
2022/03/09 05:30:18;;;;;;;;;;;-4.90;99.90;;;;;;4170166;28;19932;-46
2022/03/09 05:32:20;;;;;;;;;;;-5.00;99.90;;;;;;4177766;28;19931;-48
2022/03/09 05:34:21;;;;;;;;;;;-5.10;99.90;;;;;;4172963;28;20309;-47
2022/03/09 05:36:23;;;;;;;;;;;-5.20;99.90;;;;;;4174369;28;19932;-45
2022/03/09 05:38:25;;;;;;;;;;;-5.10;99.90;;;;;;4166382;28;19991;-48
2022/03/09 05:40:27;;;;;;;;;;;-5.00;99.90;;;;;;4172055;28;19925;-48
2022/03/09 05:42:29;;;;;;;;;;;-4.90;99.90;;;;;;4177700;28;19929;-44
2022/03/09 05:44:30;;;;;;;;;;;-5.00;99.90;;;;;;4172459;28;19924;-47
2022/03/09 05:46:33;;;;;;;;;;;-4.90;99.90;;;;;;4168348;28;20397;-47
2022/03/09 05:48:35;;;;;;;;;;;-4.80;99.90;;;;;;4171313;28;19932;-45
2022/03/09 05:50:36;;;;;;;;;;;-4.80;99.90;;;;;;4170348;28;19928;-49
2022/03/09 05:52:38;;;;;;;;;;;-4.90;99.90;;;;;;4162947;28;20040;-47
2022/03/09 05:54:40;;;;;;;;;;;-4.90;99.90;;;;;;4175196;28;20415;-46
2022/03/09 05:56:42;;;;;;;;;;;-4.80;99.90;;;;;;4169344;28;19936;-47
2022/03/09 05:58:44;;;;;;;;;;;-4.80;99.90;;;;;;4164801;28;20442;-47
2022/03/09 06:00:46;;;;;;;;;;;-4.80;99.90;;;;;;4165398;28;19943;-46
2022/03/09 06:02:50;;;;;;;;;;;-4.80;99.90;;;;;;4165295;28;19929;-51
2022/03/09 06:04:53;;;;;;;;;;;-4.80;99.90;;;;;;4168946;28;20015;-45
2022/03/09 06:06:55;;;;;;;;;;;-4.80;99.90;;;;;;4167550;28;19925;-45
2022/03/09 06:08:57;;;;;;;;;;;-4.70;99.90;;;;;;4169840;28;19959;-47
2022/03/09 06:10:59;;;;;;;;;;;-4.60;99.90;;;;;;4176534;28;19929;-46
2022/03/09 06:13:01;;;;;;;;;;;-4.70;99.90;;;;;;4175197;28;19925;-47
2022/03/09 06:15:03;;;;;;;;;;;-4.60;99.90;;;;;;4174259;28;19928;-50
2022/03/09 06:17:06;;;;;;;;;;;-4.60;99.90;;;;;;4178734;28;19928;-47
2022/03/09 06:19:08;;;;;;;;;;;-4.40;99.90;;;;;;4175365;28;19937;-46
2022/03/09 06:21:10;;;;;;;;;;;-4.40;99.90;;;;;;4174161;28;19947;-48
2022/03/09 06:23:12;;;;;;;;;;;-4.30;99.90;;;;;;4166158;28;19940;-46
2022/03/09 06:25:14;;;;;;;;;;;-4.20;99.90;;;;;;4177216;28;19975;-48
2022/03/09 06:27:16;;;;;;;;;;;-4.10;99.90;;;;;;4176719;28;19936;-49
2022/03/09 06:29:19;;;;;;;;;;;-4.00;99.90;;;;;;4170996;28;19929;-49
2022/03/09 06:31:21;;;;;;;;;;;-4.00;99.90;;;;;;4175376;28;19932;-50
2022/03/09 06:33:23;;;;;;;;;;;-4.00;99.90;;;;;;4175425;28;19965;-49
2022/03/09 06:35:26;;;;;;;;;;;-4.10;99.90;;;;;;4171247;28;20006;-48
2022/03/09 06:37:31;;;;;;;;;;;-4.00;99.90;;;;;;4165713;28;20345;-50
2022/03/09 06:39:32;;;;;;;;;;;-4.00;99.90;;;;;;4166720;28;19932;-49
2022/03/09 06:41:34;;;;;;;;;;;-3.90;99.90;;;;;;4165766;28;19929;-49
2022/03/09 06:43:36;;;;;;;;;;;-3.80;99.90;;;;;;4175356;28;19929;-46
2022/03/09 06:45:38;;;;;;;;;;;-3.90;99.90;;;;;;4173416;28;20213;-46
2022/03/09 06:47:40;;;;;;;;;;;-3.80;99.90;;;;;;4166681;28;20308;-48
2022/03/09 06:49:42;;;;;;;;;;;-3.80;99.90;;;;;;4176447;28;19924;-46
2022/03/09 06:51:44;;;;;;;;;;;-3.70;99.90;;;;;;4176894;28;19947;-49
2022/03/09 06:53:46;;;;;;;;;;;-3.60;99.90;;;;;;4175921;28;19935;-50
2022/03/09 06:55:49;;;;;;;;;;;-3.50;99.90;;;;;;4172180;28;19932;-48
2022/03/09 06:57:51;;;;;;;;;;;-3.50;99.90;;;;;;4177776;28;19924;-46
2022/03/09 06:59:53;;;;;;;;;;;-3.40;99.90;;;;;;4171281;28;19928;-47
2022/03/09 07:01:55;;;;;;;;;;;-3.50;99.90;;;;;;4172959;28;19935;-49
2022/03/09 07:03:57;;;;;;;;;;;-3.60;99.90;;;;;;4168233;28;19935;-47
2022/03/09 07:05:59;;;;;;;;;;;-3.50;99.90;;;;;;4172034;28;20099;-49
2022/03/09 07:08:02;;;;;;;;;;;-3.60;99.90;;;;;;4175253;28;19940;-46
2022/03/09 07:10:04;;;;;;;;;;;-3.70;99.90;;;;;;4172263;28;19959;-48
2022/03/09 07:12:06;;;;;;;;;;;-3.70;99.90;;;;;;4172195;28;19925;-49
2022/03/09 07:14:11;;;;;;;;;;;-3.50;99.90;;;;;;4161858;28;19983;-49
2022/03/09 07:16:13;;;;;;;;;;;-3.40;99.90;;;;;;4174372;28;20008;-48
2022/03/09 07:18:15;;;;;;;;;;;-3.20;99.90;;;;;;4171397;28;19933;-47
2022/03/09 07:20:18;;;;;;;;;;;-3.00;99.90;;;;;;4165604;28;20449;-49
2022/03/09 07:22:20;;;;;;;;;;;-2.80;99.90;;;;;;4169555;28;20019;-47
2022/03/09 07:24:22;;;;;;;;;;;-2.70;99.90;;;;;;4176164;28;19935;-47
2022/03/09 07:26:24;;;;;;;;;;;-2.60;99.90;;;;;;4168882;28;19928;-48
2022/03/09 07:28:26;;;;;;;;;;;-2.70;99.90;;;;;;4170932;28;19928;-48
2022/03/09 07:30:31;;;;;;;;;;;-2.60;99.90;;;;;;4169744;28;19971;-46
2022/03/09 07:32:33;;;;;;;;;;;-2.40;99.90;;;;;;4162931;28;19925;-48
2022/03/09 07:34:55;;;;;;;;;;;-2.10;99.90;;;;;;4166915;28;19929;-47
2022/03/09 07:36:58;;;;;;;;;;;-2.00;99.90;;;;;;4168249;28;19935;-47
2022/03/09 07:39:00;;;;;;;;;;;-2.00;99.90;;;;;;4163666;28;19925;-48
2022/03/09 07:41:14;;;;;;;;;;;-1.90;99.90;;;;;;4171215;28;19983;-48
2022/03/09 07:43:15;;;;;;;;;;;-1.80;99.90;;;;;;4163016;28;19925;-49
2022/03/09 07:45:19;;;;;;;;;;;-1.70;99.90;;;;;;4173239;28;20019;-48
2022/03/09 07:47:28;;;;;;;;;;;-1.60;99.90;;;;;;4218117;27;20377;-50
2022/03/09 07:49:33;;;;;;;;;;;-1.40;99.90;;;;;;4207569;28;19928;-51
2022/03/09 07:51:36;;;;;;;;;;;-1.20;99.90;;;;;;4207836;28;19932;-49
2022/03/09 07:53:42;;;;;;;;;;;-1.10;99.90;;;;;;4206900;28;19928;-51
2022/03/09 07:55:44;;;;;;;;;;;-0.90;99.90;;;;;;4206953;28;19935;-49
2022/03/09 07:57:46;;;;;;;;;;;-0.80;99.90;;;;;;4207218;28;20259;-47
2022/03/09 07:59:48;;;;;;;;;;;-0.60;99.90;;;;;;4207520;28;19928;-50
2022/03/09 08:01:52;;;;;;;;;;;-0.40;99.90;;;;;;4239686;27;20499;-48
2022/03/09 08:03:54;;;;;;;;;;;-0.20;99.90;;;;;;4206452;28;19928;-47
2022/03/09 08:05:56;;;;;;;;;;;-0.10;99.90;;;;;;4206763;28;19979;-46
2022/03/09 08:07:58;;;;;;;;;;;0.20;99.90;;;;;;4207864;28;19928;-50
2022/03/09 08:09:59;;;;;;;;;;;0.30;99.90;;;;;;4206700;28;19935;-49
2022/03/09 08:12:03;;;;;;;;;;;0.70;99.90;;;;;;4206938;28;19974;-50
2022/03/09 08:14:05;;;;;;;;;;;0.90;99.90;;;;;;4206564;28;19998;-47
2022/03/09 08:16:07;;;;;;;;;;;1.00;99.90;;;;;;4207145;28;20384;-48
2022/03/09 08:18:09;;;;;;;;;;;1.10;99.90;;;;;;4205661;28;19935;-49
2022/03/09 08:20:12;;;;;;;;;;;1.20;99.90;;;;;;4206767;28;19924;-50
2022/03/09 08:22:14;;;;;;;;;;;1.30;99.90;;;;;;4206532;28;19924;-50
2022/03/09 08:24:16;;;;;;;;;;;1.50;99.90;;;;;;4207297;28;20299;-49
2022/03/09 08:26:18;;;;;;;;;;;1.70;99.90;;;;;;4206573;28;20431;-46
2022/03/09 08:28:20;;;;;;;;;;;1.80;99.90;;;;;;4205224;28;19924;-49
2022/03/09 08:30:23;;;;;;;;;;;1.90;99.90;;;;;;4206247;28;20393;-49
2022/03/09 08:32:25;;;;;;;;;;;2.10;99.90;;;;;;4207377;28;20022;-50
2022/03/09 08:34:26;;;;;;;;;;;2.20;99.90;;;;;;4206678;28;19931;-46
2022/03/09 08:36:28;;;;;;;;;;;2.40;99.90;;;;;;4205070;28;19928;-49
2022/03/09 08:38:30;;;;;;;;;;;2.60;99.90;;;;;;4206410;28;19986;-45
2022/03/09 08:40:32;;;;;;;;;;;3.00;99.90;;;;;;4207192;28;20433;-45
2022/03/09 08:42:34;;;;;;;;;;;3.20;99.90;;;;;;4205306;28;19931;-46
2022/03/09 08:44:36;;;;;;;;;;;3.40;99.90;;;;;;4205920;28;19942;-46
2022/03/09 08:46:37;;;;;;;;;;;3.70;99.90;;;;;;4206175;28;20034;-48
2022/03/09 08:48:40;;;;;;;;;;;3.90;99.90;;;;;;4206698;28;19924;-46
2022/03/09 08:50:42;;;;;;;;;;;4.00;99.90;;;;;;4205651;28;19924;-48
2022/03/09 08:52:44;;;;;;;;;;;4.30;99.60;;;;;;4205959;28;19924;-48
2022/03/09 08:54:46;;;;;;;;;;;4.50;98.90;;;;;;4206496;28;19939;-49
2022/03/09 08:56:47;;;;;;;;;;;4.70;97.90;;;;;;4206574;28;19935;-47
2022/03/09 08:58:49;;;;;;;;;;;4.80;98.00;;;;;;4195237;28;19924;-49
2022/03/09 09:00:51;;;;;;;;;;;4.80;97.10;;;;;;4194637;28;20020;-50
2022/03/09 09:02:53;;;;;;;;;;;4.90;97.60;;;;;;4194762;28;19925;-49
2022/03/09 09:04:55;;;;;;;;;;;5.10;97.90;;;;;;4195017;28;19925;-49
2022/03/09 09:06:58;;;;;;;;;;;5.40;95.50;;;;;;4193916;28;20217;-48
2022/03/09 09:09:00;;;;;;;;;;;5.70;94.10;;;;;;4194797;28;19935;-49
2022/03/09 09:11:01;;;;;;;;;;;5.80;92.90;;;;;;4194658;28;20411;-48
2022/03/09 09:13:05;;;;;;;;;;;6.00;92.30;;;;;;4195214;28;19935;-48
2022/03/09 09:15:07;;;;;;;;;;;6.10;91.40;;;;;;4194868;28;19928;-48
2022/03/09 09:17:09;;;;;;;;;;;6.30;91.60;;;;;;4194681;28;19928;-48
2022/03/09 09:19:31;;;;;;;;;;;6.50;91.20;;;;;;4188484;28;20304;-49
2022/03/09 09:21:33;;;;;;;;;;;6.80;90.90;;;;;;4194554;28;19928;-48
2022/03/09 09:23:38;;;;;;;;;;;6.80;88.40;;;;;;4195296;28;20311;-50
2022/03/09 09:25:40;;;;;;;;;;;6.80;88.50;;;;;;4194739;28;19925;-47
2022/03/09 09:27:42;;;;;;;;;;;7.20;88.70;;;;;;4194387;28;19939;-48
2022/03/09 09:29:48;;;;;;;;;;;7.30;88.70;;;;;;4194336;28;20396;-48
2022/03/09 09:31:50;;;;;;;;;;;7.40;87.70;;;;;;4195132;28;19932;-49
2022/03/09 09:33:52;;;;;;;;;;;7.70;88.60;;;;;;4194181;28;20400;-48
2022/03/09 09:35:53;;;;;;;;;;;8.20;86.30;;;;;;4193062;28;19929;-48
2022/03/09 09:37:55;;;;;;;;;;;8.20;84.20;;;;;;4194551;28;19924;-51
2022/03/09 09:39:57;;;;;;;;;;;8.10;83.20;;;;;;4194720;28;20446;-51
2022/03/09 09:41:59;;;;;;;;;;;8.10;82.80;;;;;;4194025;28;19929;-50
2022/03/09 09:44:02;;;;;;;;;;;8.10;85.60;;;;;;4194085;28;20265;-50
2022/03/09 09:46:04;;;;;;;;;;;8.50;86.10;;;;;;4194026;28;19924;-49
2022/03/09 09:48:07;;;;;;;;;;;8.80;85.20;;;;;;4194246;28;19948;-48
2022/03/09 09:50:13;;;;;;;;;;;9.00;81.70;;;;;;4194386;28;19935;-50
2022/03/09 09:52:15;;;;;;;;;;;8.90;81.10;;;;;;4194300;28;19968;-50
2022/03/09 09:54:17;;;;;;;;;;;8.90;81.70;;;;;;4194049;28;19928;-49
2022/03/09 09:56:20;;;;;;;;;;;8.90;83.20;;;;;;4180633;28;19929;-49
2022/03/09 09:58:22;;;;;;;;;;;9.00;80.70;;;;;;4194504;28;19924;-48
2022/03/09 10:00:24;;;;;;;;;;;8.80;80.00;;;;;;4193874;28;19928;-50
2022/03/09 10:02:36;;;;;;;;;;;9.00;77.10;;;;;;4192507;28;19928;-51
2022/03/09 10:04:38;;;;;;;;;;;9.00;76.30;;;;;;4192480;28;19935;-52
2022/03/09 10:06:40;;;;;;;;;;;9.20;76.50;;;;;;4194169;28;19924;-48
2022/03/09 10:08:58;;;;;;;;;;;9.10;75.50;;;;;;4192751;28;20032;-50
2022/03/09 10:11:01;;;;;;;;;;;9.00;74.10;;;;;;4191983;28;20299;-49
2022/03/09 10:13:09;;;;;;;;;;;9.10;75.30;;;;;;4193683;28;19929;-50
2022/03/09 10:15:15;;;;;;;;;;;9.50;75.20;;;;;;4194235;28;19970;-51
2022/03/09 10:17:17;;;;;;;;;;;9.60;74.70;;;;;;4192383;28;19928;-50
2022/03/09 10:19:28;;;;;;;;;;;9.80;75.20;;;;;;4193550;28;19975;-47
2022/03/09 10:21:35;;;;;;;;;;;9.30;74.90;;;;;;4193216;28;19928;-48
2022/03/09 10:23:54;;;;;;;;;;;9.20;75.30;;;;;;4193638;28;20018;-51
2022/03/09 10:26:02;;;;;;;;;;;9.40;77.80;;;;;;4194241;28;20228;-49
2022/03/09 10:28:09;;;;;;;;;;;9.60;73.90;;;;;;4193455;28;19925;-49
2022/03/09 10:30:12;;;;;;;;;;;9.50;73.10;;;;;;4193209;28;20383;-49
2022/03/09 10:32:14;;;;;;;;;;;9.80;73.70;;;;;;4193562;28;19936;-49
2022/03/09 10:34:19;;;;;;;;;;;9.30;74.60;;;;;;4193675;28;19925;-51
2022/03/09 10:36:22;;;;;;;;;;;9.30;73.50;;;;;;4193991;28;19971;-49
2022/03/09 10:38:25;;;;;;;;;;;9.30;71.80;;;;;;4192493;28;19924;-50
2022/03/09 10:40:28;;;;;;;;;;;9.50;72.70;;;;;;4191837;28;20316;-50
2022/03/09 10:42:30;;;;;;;;;;;9.90;74.80;;;;;;4193285;28;19939;-49
2022/03/09 10:44:49;;;;;;;;;;;9.90;75.80;;;;;;4192699;28;19928;-50
2022/03/09 10:46:51;;;;;;;;;;;10.00;73.90;;;;;;4191410;28;19951;-50
2022/03/09 10:48:53;;;;;;;;;;;10.20;75.00;;;;;;4193078;28;19940;-49
2022/03/09 10:50:55;;;;;;;;;;;10.90;75.30;;;;;;4193033;28;19932;-52
2022/03/09 10:53:06;;;;;;;;;;;11.00;74.50;;;;;;4193335;28;19925;-48
2022/03/09 10:55:26;;;;;;;;;;;11.40;72.10;;;;;;4193572;28;20111;-48
2022/03/09 10:57:31;;;;;;;;;;;11.00;70.10;;;;;;4192530;28;19936;-52
2022/03/09 10:59:46;;;;;;;;;;;10.80;71.00;;;;;;4193133;28;19929;-49
2022/03/09 11:02:06;;;;;;;;;;;11.10;76.90;;;;;;4193128;28;19932;-50
2022/03/09 11:04:26;;;;;;;;;;;11.50;72.80;;;;;;4188044;28;19936;-51
2022/03/09 11:06:28;;;;;;;;;;;11.70;71.50;;;;;;4190486;28;20105;-49
2022/03/09 11:08:34;;;;;;;;;;;11.70;70.20;;;;;;4190803;28;19986;-47
2022/03/09 11:10:36;;;;;;;;;;;11.80;69.90;;;;;;4189494;28;19929;-48
2022/03/09 11:12:38;;;;;;;;;;;11.50;66.40;;;;;;4187019;28;21278;-48
2022/03/09 11:14:41;;;;;;;;;;;11.50;68.50;;;;;;4191781;28;19928;-48
2022/03/09 11:16:43;;;;;;;;;;;12.00;70.40;;;;;;4188278;28;19928;-49
2022/03/09 11:18:45;;;;;;;;;;;12.10;68.90;;;;;;4186037;28;19932;-49
2022/03/09 11:20:58;;;;;;;;;;;12.00;66.20;;;;;;4184872;28;19933;-49
2022/03/09 11:23:00;;;;;;;;;;;11.70;65.00;;;;;;4177238;28;19932;-50
2022/03/09 11:25:02;;;;;;;;;;;12.30;70.70;;;;;;4187989;28;21287;-49
2022/03/09 11:27:04;;;;;;;;;;;12.30;65.40;;;;;;4188362;28;19939;-47
2022/03/09 11:29:08;;;;;;;;;;;12.40;68.50;;;;;;4189385;28;20255;-51
2022/03/09 11:31:11;;;;;;;;;;;11.40;67.50;;;;;;4189260;28;19928;-48
2022/03/09 11:33:32;;;;;;;;;;;11.70;67.00;;;;;;4191073;28;19924;-49
2022/03/09 11:35:37;;;;;;;;;;;12.20;67.90;;;;;;4183768;28;20365;-51
2022/03/09 11:37:40;;;;;;;;;;;11.70;65.00;;;;;;4182203;28;20027;-52
2022/03/09 11:39:43;;;;;;;;;;;11.80;64.20;;;;;;4191298;28;19929;-48
2022/03/09 11:41:45;;;;;;;;;;;11.50;63.60;;;;;;4189071;28;19942;-49
2022/03/09 11:43:48;;;;;;;;;;;11.80;68.10;;;;;;4187535;28;20247;-49
2022/03/09 11:45:50;;;;;;;;;;;12.50;65.60;;;;;;4190040;28;20415;-49
2022/03/09 11:48:01;;;;;;;;;;;12.70;63.20;;;;;;4193092;28;19928;-48
2022/03/09 11:50:05;;;;;;;;;;;12.70;64.50;;;;;;4189484;28;19928;-48
2022/03/09 11:52:14;;;;;;;;;;;12.00;61.90;;;;;;4187350;28;19929;-51
2022/03/09 11:54:36;;;;;;;;;;;11.80;63.30;;;;;;4191146;28;20011;-50
2022/03/09 11:56:39;;;;;;;;;;;12.30;67.60;;;;;;4192172;28;19925;-50
2022/03/09 11:59:00;;;;;;;;;;;12.70;63.50;;;;;;4186699;28;20309;-51
2022/03/09 12:01:03;;;;;;;;;;;13.10;67.40;;;;;;4184718;28;20205;-49
2022/03/09 12:03:05;;;;;;;;;;;12.80;60.90;;;;;;4188547;28;20019;-50